sensor_id;sensor_type;location;lat;lon;timestamp;P1;durP1;ratioP1;P2;durP2;ratioP2
20118;SDS011;10220;42.716;23.306;2022-08-20T00:00:02;8.25;;;6.63;;
20118;SDS011;10220;42.716;23.306;2022-08-20T00:02:43;7.30;;;6.55;;
20118;SDS011;10220;42.716;23.306;2022-08-20T00:05:11;7.35;;;6.68;;
20118;SDS011;10220;42.716;23.306;2022-08-20T00:07:38;6.85;;;6.15;;
20118;SDS011;10220;42.716;23.306;2022-08-20T00:10:04;7.15;;;6.47;;
20118;SDS011;10220;42.716;23.306;2022-08-20T00:12:32;7.75;;;6.95;;
20118;SDS011;10220;42.716;23.306;2022-08-20T00:14:59;7.10;;;6.30;;
20118;SDS011;10220;42.716;23.306;2022-08-20T00:17:24;9.10;;;6.80;;
20118;SDS011;10220;42.716;23.306;2022-08-20T00:19:50;7.45;;;6.53;;
20118;SDS011;10220;42.716;23.306;2022-08-20T00:22:15;7.03;;;5.72;;
20118;SDS011;10220;42.716;23.306;2022-08-20T00:24:41;7.20;;;6.50;;
20118;SDS011;10220;42.716;23.306;2022-08-20T00:27:07;7.22;;;6.53;;
20118;SDS011;10220;42.716;23.306;2022-08-20T00:29:32;8.32;;;6.60;;
20118;SDS011;10220;42.716;23.306;2022-08-20T00:31:58;7.47;;;6.68;;
20118;SDS011;10220;42.716;23.306;2022-08-20T00:34:23;11.48;;;7.05;;
20118;SDS011;10220;42.716;23.306;2022-08-20T00:36:49;6.95;;;6.22;;
20118;SDS011;10220;42.716;23.306;2022-08-20T00:39:14;8.38;;;6.20;;
20118;SDS011;10220;42.716;23.306;2022-08-20T00:41:40;7.03;;;6.10;;
20118;SDS011;10220;42.716;23.306;2022-08-20T00:44:08;9.30;;;6.55;;
20118;SDS011;10220;42.716;23.306;2022-08-20T00:46:36;8.95;;;6.38;;
20118;SDS011;10220;42.716;23.306;2022-08-20T00:49:03;6.72;;;6.03;;
20118;SDS011;10220;42.716;23.306;2022-08-20T00:51:34;7.10;;;6.50;;
20118;SDS011;10220;42.716;23.306;2022-08-20T00:56:32;6.72;;;6.13;;
20118;SDS011;10220;42.716;23.306;2022-08-20T00:58:58;7.75;;;6.78;;
20118;SDS011;10220;42.716;23.306;2022-08-20T01:01:24;9.07;;;6.95;;
20118;SDS011;10220;42.716;23.306;2022-08-20T01:03:50;7.10;;;6.40;;
20118;SDS011;10220;42.716;23.306;2022-08-20T01:06:19;7.57;;;6.35;;
20118;SDS011;10220;42.716;23.306;2022-08-20T01:08:45;8.10;;;6.75;;
20118;SDS011;10220;42.716;23.306;2022-08-20T01:11:11;7.32;;;6.47;;
20118;SDS011;10220;42.716;23.306;2022-08-20T01:13:40;9.50;;;7.15;;
20118;SDS011;10220;42.716;23.306;2022-08-20T01:16:09;7.90;;;6.57;;
20118;SDS011;10220;42.716;23.306;2022-08-20T01:18:42;8.90;;;6.65;;
20118;SDS011;10220;42.716;23.306;2022-08-20T01:21:08;7.35;;;6.68;;
20118;SDS011;10220;42.716;23.306;2022-08-20T01:31:05;7.15;;;6.20;;
20118;SDS011;10220;42.716;23.306;2022-08-20T01:33:34;7.47;;;6.18;;
20118;SDS011;10220;42.716;23.306;2022-08-20T01:36:01;8.52;;;6.13;;
20118;SDS011;10220;42.716;23.306;2022-08-20T01:38:28;7.20;;;6.55;;
20118;SDS011;10220;42.716;23.306;2022-08-20T01:43:38;8.75;;;6.80;;
20118;SDS011;10220;42.716;23.306;2022-08-20T01:46:06;7.28;;;6.55;;
20118;SDS011;10220;42.716;23.306;2022-08-20T01:48:34;8.63;;;7.00;;
20118;SDS011;10220;42.716;23.306;2022-08-20T01:51:06;7.65;;;6.95;;
20118;SDS011;10220;42.716;23.306;2022-08-20T01:53:39;7.88;;;6.40;;
20118;SDS011;10220;42.716;23.306;2022-08-20T01:56:10;7.93;;;7.13;;
20118;SDS011;10220;42.716;23.306;2022-08-20T01:58:39;7.18;;;6.47;;
20118;SDS011;10220;42.716;23.306;2022-08-20T02:01:17;8.18;;;6.70;;
20118;SDS011;10220;42.716;23.306;2022-08-20T02:03:54;7.53;;;6.82;;
20118;SDS011;10220;42.716;23.306;2022-08-20T02:06:21;8.77;;;6.97;;
20118;SDS011;10220;42.716;23.306;2022-08-20T02:08:54;7.53;;;6.72;;
20118;SDS011;10220;42.716;23.306;2022-08-20T02:11:21;8.68;;;6.70;;
20118;SDS011;10220;42.716;23.306;2022-08-20T02:13:48;6.90;;;6.18;;
20118;SDS011;10220;42.716;23.306;2022-08-20T02:16:17;7.75;;;6.80;;
20118;SDS011;10220;42.716;23.306;2022-08-20T02:18:48;7.85;;;6.88;;
20118;SDS011;10220;42.716;23.306;2022-08-20T02:21:18;8.02;;;6.93;;
20118;SDS011;10220;42.716;23.306;2022-08-20T02:23:45;8.55;;;7.18;;
20118;SDS011;10220;42.716;23.306;2022-08-20T02:26:10;8.93;;;6.93;;
20118;SDS011;10220;42.716;23.306;2022-08-20T02:28:36;8.90;;;6.70;;
20118;SDS011;10220;42.716;23.306;2022-08-20T02:31:01;7.68;;;6.88;;
20118;SDS011;10220;42.716;23.306;2022-08-20T02:33:31;8.20;;;7.10;;
20118;SDS011;10220;42.716;23.306;2022-08-20T02:35:56;8.25;;;7.05;;
20118;SDS011;10220;42.716;23.306;2022-08-20T02:38:22;9.15;;;6.65;;
20118;SDS011;10220;42.716;23.306;2022-08-20T02:40:48;8.48;;;6.82;;
20118;SDS011;10220;42.716;23.306;2022-08-20T02:43:14;9.00;;;6.97;;
20118;SDS011;10220;42.716;23.306;2022-08-20T02:45:41;10.82;;;6.85;;
20118;SDS011;10220;42.716;23.306;2022-08-20T02:48:09;10.50;;;7.43;;
20118;SDS011;10220;42.716;23.306;2022-08-20T02:50:41;8.82;;;7.43;;
20118;SDS011;10220;42.716;23.306;2022-08-20T02:53:07;13.25;;;7.60;;
20118;SDS011;10220;42.716;23.306;2022-08-20T02:55:33;11.95;;;7.45;;
20118;SDS011;10220;42.716;23.306;2022-08-20T02:57:58;8.38;;;7.28;;
20118;SDS011;10220;42.716;23.306;2022-08-20T03:00:25;7.40;;;6.55;;
20118;SDS011;10220;42.716;23.306;2022-08-20T03:02:51;7.32;;;6.68;;
20118;SDS011;10220;42.716;23.306;2022-08-20T03:05:17;12.10;;;7.40;;
20118;SDS011;10220;42.716;23.306;2022-08-20T03:07:47;8.32;;;7.20;;
20118;SDS011;10220;42.716;23.306;2022-08-20T03:10:20;8.75;;;7.30;;
20118;SDS011;10220;42.716;23.306;2022-08-20T03:12:49;12.00;;;7.43;;
20118;SDS011;10220;42.716;23.306;2022-08-20T03:15:16;8.05;;;7.25;;
20118;SDS011;10220;42.716;23.306;2022-08-20T03:17:42;8.55;;;7.75;;
20118;SDS011;10220;42.716;23.306;2022-08-20T03:20:08;7.72;;;6.93;;
20118;SDS011;10220;42.716;23.306;2022-08-20T03:22:34;8.68;;;7.75;;
20118;SDS011;10220;42.716;23.306;2022-08-20T03:25:00;11.75;;;7.53;;
20118;SDS011;10220;42.716;23.306;2022-08-20T03:27:25;9.48;;;7.13;;
20118;SDS011;10220;42.716;23.306;2022-08-20T03:29:51;10.90;;;7.85;;
20118;SDS011;10220;42.716;23.306;2022-08-20T03:32:16;8.50;;;7.60;;
20118;SDS011;10220;42.716;23.306;2022-08-20T03:34:42;10.95;;;7.75;;
20118;SDS011;10220;42.716;23.306;2022-08-20T03:37:07;8.63;;;7.78;;
20118;SDS011;10220;42.716;23.306;2022-08-20T03:39:35;8.60;;;7.55;;
20118;SDS011;10220;42.716;23.306;2022-08-20T03:42:02;9.90;;;7.68;;
20118;SDS011;10220;42.716;23.306;2022-08-20T03:44:28;11.40;;;7.95;;
20118;SDS011;10220;42.716;23.306;2022-08-20T03:46:53;8.57;;;7.57;;
20118;SDS011;10220;42.716;23.306;2022-08-20T03:49:18;9.95;;;8.82;;
20118;SDS011;10220;42.716;23.306;2022-08-20T03:51:44;8.80;;;7.72;;
20118;SDS011;10220;42.716;23.306;2022-08-20T03:54:09;9.18;;;7.47;;
20118;SDS011;10220;42.716;23.306;2022-08-20T03:56:35;13.23;;;11.32;;
20118;SDS011;10220;42.716;23.306;2022-08-20T03:59:00;15.18;;;11.95;;
20118;SDS011;10220;42.716;23.306;2022-08-20T04:01:26;15.45;;;13.02;;
20118;SDS011;10220;42.716;23.306;2022-08-20T04:03:52;13.85;;;11.00;;
20118;SDS011;10220;42.716;23.306;2022-08-20T04:06:17;9.02;;;7.93;;
20118;SDS011;10220;42.716;23.306;2022-08-20T04:08:43;9.20;;;8.18;;
20118;SDS011;10220;42.716;23.306;2022-08-20T04:11:08;9.07;;;8.15;;
20118;SDS011;10220;42.716;23.306;2022-08-20T04:13:34;10.48;;;7.93;;
20118;SDS011;10220;42.716;23.306;2022-08-20T04:16:00;36.22;;;32.50;;
20118;SDS011;10220;42.716;23.306;2022-08-20T04:18:27;20.40;;;18.40;;
20118;SDS011;10220;42.716;23.306;2022-08-20T04:20:53;27.17;;;19.10;;
20118;SDS011;10220;42.716;23.306;2022-08-20T04:23:19;37.47;;;32.35;;
20118;SDS011;10220;42.716;23.306;2022-08-20T04:25:45;30.73;;;26.20;;
20118;SDS011;10220;42.716;23.306;2022-08-20T04:28:12;15.00;;;12.23;;
20118;SDS011;10220;42.716;23.306;2022-08-20T04:30:40;17.83;;;15.93;;
20118;SDS011;10220;42.716;23.306;2022-08-20T04:33:06;10.23;;;8.68;;
20118;SDS011;10220;42.716;23.306;2022-08-20T04:35:33;9.15;;;8.25;;
20118;SDS011;10220;42.716;23.306;2022-08-20T04:37:59;10.57;;;9.18;;
20118;SDS011;10220;42.716;23.306;2022-08-20T04:40:27;10.20;;;8.85;;
20118;SDS011;10220;42.716;23.306;2022-08-20T04:43:12;14.35;;;9.10;;
20118;SDS011;10220;42.716;23.306;2022-08-20T04:45:38;12.65;;;10.50;;
20118;SDS011;10220;42.716;23.306;2022-08-20T04:48:04;12.52;;;9.50;;
20118;SDS011;10220;42.716;23.306;2022-08-20T04:50:31;9.95;;;8.23;;
20118;SDS011;10220;42.716;23.306;2022-08-20T04:53:00;11.18;;;10.02;;
20118;SDS011;10220;42.716;23.306;2022-08-20T04:55:29;10.25;;;9.25;;
20118;SDS011;10220;42.716;23.306;2022-08-20T04:58:05;11.35;;;9.40;;
20118;SDS011;10220;42.716;23.306;2022-08-20T05:00:43;14.32;;;10.13;;
20118;SDS011;10220;42.716;23.306;2022-08-20T05:03:11;11.93;;;9.63;;
20118;SDS011;10220;42.716;23.306;2022-08-20T05:05:36;13.98;;;9.95;;
20118;SDS011;10220;42.716;23.306;2022-08-20T05:08:04;28.17;;;23.17;;
20118;SDS011;10220;42.716;23.306;2022-08-20T05:10:29;24.90;;;22.25;;
20118;SDS011;10220;42.716;23.306;2022-08-20T05:12:55;12.25;;;9.52;;
20118;SDS011;10220;42.716;23.306;2022-08-20T05:15:20;10.57;;;8.98;;
20118;SDS011;10220;42.716;23.306;2022-08-20T05:17:53;11.82;;;9.90;;
20118;SDS011;10220;42.716;23.306;2022-08-20T05:20:24;35.75;;;31.25;;
20118;SDS011;10220;42.716;23.306;2022-08-20T05:22:53;38.72;;;34.60;;
20118;SDS011;10220;42.716;23.306;2022-08-20T05:25:20;20.02;;;17.92;;
20118;SDS011;10220;42.716;23.306;2022-08-20T05:27:45;13.45;;;12.05;;
20118;SDS011;10220;42.716;23.306;2022-08-20T05:30:11;13.20;;;10.43;;
20118;SDS011;10220;42.716;23.306;2022-08-20T05:32:37;13.90;;;9.40;;
20118;SDS011;10220;42.716;23.306;2022-08-20T05:35:04;11.40;;;9.20;;
20118;SDS011;10220;42.716;23.306;2022-08-20T05:37:36;12.30;;;10.07;;
20118;SDS011;10220;42.716;23.306;2022-08-20T05:40:12;11.75;;;9.82;;
20118;SDS011;10220;42.716;23.306;2022-08-20T05:42:38;13.30;;;10.13;;
20118;SDS011;10220;42.716;23.306;2022-08-20T05:45:05;14.02;;;9.73;;
20118;SDS011;10220;42.716;23.306;2022-08-20T05:47:31;9.70;;;8.70;;
20118;SDS011;10220;42.716;23.306;2022-08-20T05:49:57;19.50;;;15.93;;
20118;SDS011;10220;42.716;23.306;2022-08-20T05:52:22;13.38;;;11.43;;
20118;SDS011;10220;42.716;23.306;2022-08-20T05:54:48;22.05;;;18.23;;
20118;SDS011;10220;42.716;23.306;2022-08-20T05:57:17;25.23;;;18.75;;
20118;SDS011;10220;42.716;23.306;2022-08-20T05:59:45;12.55;;;9.25;;
20118;SDS011;10220;42.716;23.306;2022-08-20T06:02:11;9.20;;;8.30;;
20118;SDS011;10220;42.716;23.306;2022-08-20T06:05:07;10.23;;;9.10;;
20118;SDS011;10220;42.716;23.306;2022-08-20T06:07:33;11.80;;;9.48;;
20118;SDS011;10220;42.716;23.306;2022-08-20T06:09:59;10.85;;;9.32;;
20118;SDS011;10220;42.716;23.306;2022-08-20T06:12:24;11.35;;;10.13;;
20118;SDS011;10220;42.716;23.306;2022-08-20T06:14:50;12.13;;;8.57;;
20118;SDS011;10220;42.716;23.306;2022-08-20T06:17:16;19.83;;;15.98;;
20118;SDS011;10220;42.716;23.306;2022-08-20T06:19:43;22.10;;;16.75;;
20118;SDS011;10220;42.716;23.306;2022-08-20T06:22:10;11.32;;;9.27;;
20118;SDS011;10220;42.716;23.306;2022-08-20T06:24:36;26.40;;;23.75;;
20118;SDS011;10220;42.716;23.306;2022-08-20T06:27:02;10.25;;;8.63;;
20118;SDS011;10220;42.716;23.306;2022-08-20T06:29:29;14.80;;;12.38;;
20118;SDS011;10220;42.716;23.306;2022-08-20T06:31:57;12.40;;;11.18;;
20118;SDS011;10220;42.716;23.306;2022-08-20T06:34:23;19.02;;;16.92;;
20118;SDS011;10220;42.716;23.306;2022-08-20T06:36:55;14.07;;;12.00;;
20118;SDS011;10220;42.716;23.306;2022-08-20T06:39:21;24.70;;;20.90;;
20118;SDS011;10220;42.716;23.306;2022-08-20T06:41:48;11.27;;;9.02;;
20118;SDS011;10220;42.716;23.306;2022-08-20T06:44:15;12.77;;;9.60;;
20118;SDS011;10220;42.716;23.306;2022-08-20T06:46:41;10.05;;;7.85;;
20118;SDS011;10220;42.716;23.306;2022-08-20T06:49:07;10.05;;;9.05;;
20118;SDS011;10220;42.716;23.306;2022-08-20T06:51:33;13.60;;;9.55;;
20118;SDS011;10220;42.716;23.306;2022-08-20T06:54:01;10.43;;;9.38;;
20118;SDS011;10220;42.716;23.306;2022-08-20T06:56:27;13.00;;;8.80;;
20118;SDS011;10220;42.716;23.306;2022-08-20T06:58:53;10.45;;;8.13;;
20118;SDS011;10220;42.716;23.306;2022-08-20T07:01:18;10.82;;;8.55;;
20118;SDS011;10220;42.716;23.306;2022-08-20T07:03:45;11.27;;;8.52;;
20118;SDS011;10220;42.716;23.306;2022-08-20T07:06:12;10.45;;;8.73;;
20118;SDS011;10220;42.716;23.306;2022-08-20T07:08:38;8.98;;;8.18;;
20118;SDS011;10220;42.716;23.306;2022-08-20T07:11:04;14.88;;;11.75;;
20118;SDS011;10220;42.716;23.306;2022-08-20T07:13:30;9.77;;;8.80;;
20118;SDS011;10220;42.716;23.306;2022-08-20T07:15:56;9.60;;;8.75;;
20118;SDS011;10220;42.716;23.306;2022-08-20T07:18:21;10.25;;;8.45;;
20118;SDS011;10220;42.716;23.306;2022-08-20T07:20:48;10.48;;;8.48;;
20118;SDS011;10220;42.716;23.306;2022-08-20T07:23:13;9.60;;;8.20;;
20118;SDS011;10220;42.716;23.306;2022-08-20T07:25:40;8.90;;;8.00;;
20118;SDS011;10220;42.716;23.306;2022-08-20T07:28:18;8.95;;;8.02;;
20118;SDS011;10220;42.716;23.306;2022-08-20T07:30:46;9.20;;;8.30;;
20118;SDS011;10220;42.716;23.306;2022-08-20T07:33:32;12.75;;;8.52;;
20118;SDS011;10220;42.716;23.306;2022-08-20T07:35:59;16.88;;;15.15;;
20118;SDS011;10220;42.716;23.306;2022-08-20T07:38:26;10.23;;;8.88;;
20118;SDS011;10220;42.716;23.306;2022-08-20T07:40:54;9.95;;;8.43;;
20118;SDS011;10220;42.716;23.306;2022-08-20T07:43:22;8.98;;;8.07;;
20118;SDS011;10220;42.716;23.306;2022-08-20T07:45:49;9.73;;;8.65;;
20118;SDS011;10220;42.716;23.306;2022-08-20T07:48:15;10.63;;;8.40;;
20118;SDS011;10220;42.716;23.306;2022-08-20T07:50:41;8.40;;;7.53;;
20118;SDS011;10220;42.716;23.306;2022-08-20T07:53:07;10.18;;;8.50;;
20118;SDS011;10220;42.716;23.306;2022-08-20T07:55:33;10.05;;;8.13;;
20118;SDS011;10220;42.716;23.306;2022-08-20T07:58:04;9.13;;;8.32;;
20118;SDS011;10220;42.716;23.306;2022-08-20T08:00:31;9.23;;;8.10;;
20118;SDS011;10220;42.716;23.306;2022-08-20T08:02:57;8.93;;;8.02;;
20118;SDS011;10220;42.716;23.306;2022-08-20T08:05:24;9.82;;;8.85;;
20118;SDS011;10220;42.716;23.306;2022-08-20T08:07:50;9.60;;;8.13;;
20118;SDS011;10220;42.716;23.306;2022-08-20T08:10:17;9.85;;;8.85;;
20118;SDS011;10220;42.716;23.306;2022-08-20T08:12:46;8.70;;;7.78;;
20118;SDS011;10220;42.716;23.306;2022-08-20T08:15:28;11.35;;;8.73;;
20118;SDS011;10220;42.716;23.306;2022-08-20T08:18:06;11.70;;;8.75;;
20118;SDS011;10220;42.716;23.306;2022-08-20T08:20:35;9.60;;;8.00;;
20118;SDS011;10220;42.716;23.306;2022-08-20T08:23:04;9.48;;;8.57;;
20118;SDS011;10220;42.716;23.306;2022-08-20T08:25:31;9.45;;;7.93;;
20118;SDS011;10220;42.716;23.306;2022-08-20T08:27:57;15.00;;;12.23;;
20118;SDS011;10220;42.716;23.306;2022-08-20T08:30:25;11.13;;;9.88;;
20118;SDS011;10220;42.716;23.306;2022-08-20T08:32:52;10.70;;;7.78;;
20118;SDS011;10220;42.716;23.306;2022-08-20T08:35:36;11.45;;;8.48;;
20118;SDS011;10220;42.716;23.306;2022-08-20T08:38:03;12.98;;;11.75;;
20118;SDS011;10220;42.716;23.306;2022-08-20T08:40:29;9.10;;;8.15;;
20118;SDS011;10220;42.716;23.306;2022-08-20T08:42:56;9.90;;;9.00;;
20118;SDS011;10220;42.716;23.306;2022-08-20T08:45:26;9.63;;;8.80;;
20118;SDS011;10220;42.716;23.306;2022-08-20T08:47:56;9.63;;;8.63;;
20118;SDS011;10220;42.716;23.306;2022-08-20T08:50:32;11.52;;;7.85;;
20118;SDS011;10220;42.716;23.306;2022-08-20T08:52:59;9.27;;;8.38;;
20118;SDS011;10220;42.716;23.306;2022-08-20T08:55:27;9.38;;;8.43;;
20118;SDS011;10220;42.716;23.306;2022-08-20T08:57:55;9.77;;;8.90;;
20118;SDS011;10220;42.716;23.306;2022-08-20T09:00:24;8.63;;;7.82;;
20118;SDS011;10220;42.716;23.306;2022-08-20T09:05:21;8.60;;;7.80;;
20118;SDS011;10220;42.716;23.306;2022-08-20T09:07:51;8.65;;;7.80;;
20118;SDS011;10220;42.716;23.306;2022-08-20T09:10:18;9.93;;;8.55;;
20118;SDS011;10220;42.716;23.306;2022-08-20T09:12:43;9.38;;;8.57;;
20118;SDS011;10220;42.716;23.306;2022-08-20T09:15:10;9.02;;;8.13;;
20118;SDS011;10220;42.716;23.306;2022-08-20T09:17:36;9.65;;;8.75;;
20118;SDS011;10220;42.716;23.306;2022-08-20T09:20:01;8.93;;;8.20;;
20118;SDS011;10220;42.716;23.306;2022-08-20T09:22:27;8.82;;;7.93;;
20118;SDS011;10220;42.716;23.306;2022-08-20T09:24:53;12.05;;;7.85;;
20118;SDS011;10220;42.716;23.306;2022-08-20T09:27:18;7.68;;;6.97;;
20118;SDS011;10220;42.716;23.306;2022-08-20T09:29:44;10.05;;;8.85;;
20118;SDS011;10220;42.716;23.306;2022-08-20T09:32:11;7.95;;;7.28;;
20118;SDS011;10220;42.716;23.306;2022-08-20T09:34:46;10.25;;;8.07;;
20118;SDS011;10220;42.716;23.306;2022-08-20T09:37:13;8.27;;;7.57;;
20118;SDS011;10220;42.716;23.306;2022-08-20T09:39:39;11.15;;;8.73;;
20118;SDS011;10220;42.716;23.306;2022-08-20T09:42:06;8.63;;;7.57;;
20118;SDS011;10220;42.716;23.306;2022-08-20T09:44:36;8.10;;;7.30;;
20118;SDS011;10220;42.716;23.306;2022-08-20T09:47:01;8.45;;;7.60;;
20118;SDS011;10220;42.716;23.306;2022-08-20T09:49:27;9.60;;;8.23;;
20118;SDS011;10220;42.716;23.306;2022-08-20T09:51:52;8.25;;;7.55;;
20118;SDS011;10220;42.716;23.306;2022-08-20T09:54:18;12.50;;;11.35;;
20118;SDS011;10220;42.716;23.306;2022-08-20T09:56:45;10.20;;;8.07;;
20118;SDS011;10220;42.716;23.306;2022-08-20T09:59:11;8.88;;;7.80;;
20118;SDS011;10220;42.716;23.306;2022-08-20T10:01:39;8.70;;;7.90;;
20118;SDS011;10220;42.716;23.306;2022-08-20T10:04:04;8.50;;;7.70;;
20118;SDS011;10220;42.716;23.306;2022-08-20T10:06:30;8.90;;;7.43;;
20118;SDS011;10220;42.716;23.306;2022-08-20T10:08:56;8.85;;;8.05;;
20118;SDS011;10220;42.716;23.306;2022-08-20T10:11:21;8.43;;;7.63;;
20118;SDS011;10220;42.716;23.306;2022-08-20T10:13:46;9.55;;;7.57;;
20118;SDS011;10220;42.716;23.306;2022-08-20T10:16:12;8.80;;;7.88;;
20118;SDS011;10220;42.716;23.306;2022-08-20T10:18:38;9.32;;;7.25;;
20118;SDS011;10220;42.716;23.306;2022-08-20T10:21:07;8.32;;;7.53;;
20118;SDS011;10220;42.716;23.306;2022-08-20T10:23:34;8.50;;;7.63;;
20118;SDS011;10220;42.716;23.306;2022-08-20T10:26:00;7.95;;;7.25;;
20118;SDS011;10220;42.716;23.306;2022-08-20T10:28:25;10.48;;;9.57;;
20118;SDS011;10220;42.716;23.306;2022-08-20T10:30:51;8.63;;;7.35;;
20118;SDS011;10220;42.716;23.306;2022-08-20T10:33:16;8.07;;;7.28;;
20118;SDS011;10220;42.716;23.306;2022-08-20T10:35:42;8.90;;;8.00;;
20118;SDS011;10220;42.716;23.306;2022-08-20T10:38:07;8.80;;;7.55;;
20118;SDS011;10220;42.716;23.306;2022-08-20T10:40:33;8.95;;;7.30;;
20118;SDS011;10220;42.716;23.306;2022-08-20T10:42:58;10.27;;;9.48;;
20118;SDS011;10220;42.716;23.306;2022-08-20T10:45:24;8.90;;;8.02;;
20118;SDS011;10220;42.716;23.306;2022-08-20T10:47:49;10.00;;;9.20;;
20118;SDS011;10220;42.716;23.306;2022-08-20T10:50:15;8.02;;;7.20;;
20118;SDS011;10220;42.716;23.306;2022-08-20T10:52:41;8.48;;;7.75;;
20118;SDS011;10220;42.716;23.306;2022-08-20T10:55:07;8.57;;;7.78;;
20118;SDS011;10220;42.716;23.306;2022-08-20T10:57:33;8.30;;;7.43;;
20118;SDS011;10220;42.716;23.306;2022-08-20T11:00:02;8.32;;;7.53;;
20118;SDS011;10220;42.716;23.306;2022-08-20T11:02:29;10.57;;;7.88;;
20118;SDS011;10220;42.716;23.306;2022-08-20T11:04:55;8.88;;;7.90;;
20118;SDS011;10220;42.716;23.306;2022-08-20T11:07:24;8.32;;;7.53;;
20118;SDS011;10220;42.716;23.306;2022-08-20T11:09:52;8.07;;;7.25;;
20118;SDS011;10220;42.716;23.306;2022-08-20T11:12:19;8.48;;;7.43;;
20118;SDS011;10220;42.716;23.306;2022-08-20T11:14:45;8.55;;;7.63;;
20118;SDS011;10220;42.716;23.306;2022-08-20T11:17:12;9.25;;;7.70;;
20118;SDS011;10220;42.716;23.306;2022-08-20T11:19:43;10.80;;;9.90;;
20118;SDS011;10220;42.716;23.306;2022-08-20T11:22:09;11.35;;;10.27;;
20118;SDS011;10220;42.716;23.306;2022-08-20T11:24:35;8.73;;;8.02;;
20118;SDS011;10220;42.716;23.306;2022-08-20T11:27:02;9.43;;;8.38;;
20118;SDS011;10220;42.716;23.306;2022-08-20T11:29:29;7.72;;;7.03;;
20118;SDS011;10220;42.716;23.306;2022-08-20T11:31:55;9.23;;;8.20;;
20118;SDS011;10220;42.716;23.306;2022-08-20T11:34:20;9.93;;;8.63;;
20118;SDS011;10220;42.716;23.306;2022-08-20T11:36:46;8.02;;;7.22;;
20118;SDS011;10220;42.716;23.306;2022-08-20T11:39:12;11.60;;;10.13;;
20118;SDS011;10220;42.716;23.306;2022-08-20T11:41:38;10.70;;;8.98;;
20118;SDS011;10220;42.716;23.306;2022-08-20T11:44:03;9.18;;;8.27;;
20118;SDS011;10220;42.716;23.306;2022-08-20T11:46:29;8.70;;;7.90;;
20118;SDS011;10220;42.716;23.306;2022-08-20T11:48:56;9.70;;;8.80;;
20118;SDS011;10220;42.716;23.306;2022-08-20T11:51:22;9.15;;;7.82;;
20118;SDS011;10220;42.716;23.306;2022-08-20T11:53:47;8.70;;;7.90;;
20118;SDS011;10220;42.716;23.306;2022-08-20T11:56:13;10.85;;;7.95;;
20118;SDS011;10220;42.716;23.306;2022-08-20T11:58:40;10.00;;;8.90;;
20118;SDS011;10220;42.716;23.306;2022-08-20T12:01:06;10.68;;;8.30;;
20118;SDS011;10220;42.716;23.306;2022-08-20T12:03:32;9.98;;;7.72;;
20118;SDS011;10220;42.716;23.306;2022-08-20T12:05:57;12.20;;;11.00;;
20118;SDS011;10220;42.716;23.306;2022-08-20T12:08:23;8.77;;;7.82;;
20118;SDS011;10220;42.716;23.306;2022-08-20T12:10:48;9.27;;;8.32;;
20118;SDS011;10220;42.716;23.306;2022-08-20T12:13:13;11.38;;;9.70;;
20118;SDS011;10220;42.716;23.306;2022-08-20T12:15:39;12.68;;;11.43;;
20118;SDS011;10220;42.716;23.306;2022-08-20T12:18:05;12.27;;;11.07;;
20118;SDS011;10220;42.716;23.306;2022-08-20T12:20:31;13.07;;;11.80;;
20118;SDS011;10220;42.716;23.306;2022-08-20T12:22:57;9.38;;;8.48;;
20118;SDS011;10220;42.716;23.306;2022-08-20T12:25:22;19.08;;;17.23;;
20118;SDS011;10220;42.716;23.306;2022-08-20T12:27:48;40.55;;;36.75;;
20118;SDS011;10220;42.716;23.306;2022-08-20T12:30:15;17.33;;;15.60;;
20118;SDS011;10220;42.716;23.306;2022-08-20T12:32:43;18.52;;;16.80;;
20118;SDS011;10220;42.716;23.306;2022-08-20T12:35:09;17.45;;;15.95;;
20118;SDS011;10220;42.716;23.306;2022-08-20T12:37:37;9.80;;;8.90;;
20118;SDS011;10220;42.716;23.306;2022-08-20T12:40:05;13.00;;;9.57;;
20118;SDS011;10220;42.716;23.306;2022-08-20T12:42:34;12.88;;;9.13;;
20118;SDS011;10220;42.716;23.306;2022-08-20T12:45:00;16.58;;;10.07;;
20118;SDS011;10220;42.716;23.306;2022-08-20T12:47:31;17.48;;;12.32;;
20118;SDS011;10220;42.716;23.306;2022-08-20T12:50:01;14.88;;;12.68;;
20118;SDS011;10220;42.716;23.306;2022-08-20T12:52:29;21.50;;;14.82;;
20118;SDS011;10220;42.716;23.306;2022-08-20T12:54:56;19.23;;;15.75;;
20118;SDS011;10220;42.716;23.306;2022-08-20T12:57:26;17.33;;;13.32;;
20118;SDS011;10220;42.716;23.306;2022-08-20T13:00:07;15.77;;;13.25;;
20118;SDS011;10220;42.716;23.306;2022-08-20T13:02:37;17.48;;;14.38;;
20118;SDS011;10220;42.716;23.306;2022-08-20T13:05:05;18.25;;;14.85;;
20118;SDS011;10220;42.716;23.306;2022-08-20T13:07:32;19.02;;;14.88;;
20118;SDS011;10220;42.716;23.306;2022-08-20T13:09:58;21.27;;;16.85;;
20118;SDS011;10220;42.716;23.306;2022-08-20T13:12:24;20.15;;;14.70;;
20118;SDS011;10220;42.716;23.306;2022-08-20T13:14:49;19.75;;;14.52;;
20118;SDS011;10220;42.716;23.306;2022-08-20T13:17:16;21.25;;;16.33;;
20118;SDS011;10220;42.716;23.306;2022-08-20T13:19:42;18.13;;;15.98;;
20118;SDS011;10220;42.716;23.306;2022-08-20T13:22:09;17.70;;;15.32;;
20118;SDS011;10220;42.716;23.306;2022-08-20T13:24:35;19.33;;;15.32;;
20118;SDS011;10220;42.716;23.306;2022-08-20T13:29:51;16.50;;;14.25;;
20118;SDS011;10220;42.716;23.306;2022-08-20T13:32:18;16.00;;;14.27;;
20118;SDS011;10220;42.716;23.306;2022-08-20T13:34:44;18.35;;;16.45;;
20118;SDS011;10220;42.716;23.306;2022-08-20T13:37:14;21.50;;;17.90;;
20118;SDS011;10220;42.716;23.306;2022-08-20T13:39:41;21.23;;;18.38;;
20118;SDS011;10220;42.716;23.306;2022-08-20T13:42:08;19.73;;;17.73;;
20118;SDS011;10220;42.716;23.306;2022-08-20T13:44:34;21.05;;;18.60;;
20118;SDS011;10220;42.716;23.306;2022-08-20T13:47:11;19.10;;;17.13;;
20118;SDS011;10220;42.716;23.306;2022-08-20T13:49:37;18.05;;;13.45;;
20118;SDS011;10220;42.716;23.306;2022-08-20T13:52:03;17.50;;;12.98;;
20118;SDS011;10220;42.716;23.306;2022-08-20T13:54:28;13.70;;;12.32;;
20118;SDS011;10220;42.716;23.306;2022-08-20T13:57:02;15.68;;;12.27;;
20118;SDS011;10220;42.716;23.306;2022-08-20T13:59:34;14.98;;;12.23;;
20118;SDS011;10220;42.716;23.306;2022-08-20T14:02:00;15.90;;;12.73;;
20118;SDS011;10220;42.716;23.306;2022-08-20T14:07:15;15.18;;;13.23;;
20118;SDS011;10220;42.716;23.306;2022-08-20T14:09:46;17.60;;;14.60;;
20118;SDS011;10220;42.716;23.306;2022-08-20T14:12:14;18.63;;;15.18;;
20118;SDS011;10220;42.716;23.306;2022-08-20T14:14:40;14.93;;;13.10;;
20118;SDS011;10220;42.716;23.306;2022-08-20T14:17:16;16.60;;;14.65;;
20118;SDS011;10220;42.716;23.306;2022-08-20T14:19:44;16.58;;;14.98;;
20118;SDS011;10220;42.716;23.306;2022-08-20T14:22:11;17.00;;;13.98;;
20118;SDS011;10220;42.716;23.306;2022-08-20T14:24:37;16.45;;;13.75;;
20118;SDS011;10220;42.716;23.306;2022-08-20T14:27:03;16.02;;;13.60;;
20118;SDS011;10220;42.716;23.306;2022-08-20T14:29:36;18.35;;;12.90;;
20118;SDS011;10220;42.716;23.306;2022-08-20T14:32:03;15.98;;;12.00;;
20118;SDS011;10220;42.716;23.306;2022-08-20T14:34:29;12.23;;;10.45;;
20118;SDS011;10220;42.716;23.306;2022-08-20T14:36:54;15.48;;;10.45;;
20118;SDS011;10220;42.716;23.306;2022-08-20T14:39:21;11.35;;;9.50;;
20118;SDS011;10220;42.716;23.306;2022-08-20T14:41:48;12.15;;;9.00;;
20118;SDS011;10220;42.716;23.306;2022-08-20T14:44:13;10.27;;;7.88;;